Time,TemperatureF,DewpointF,PressureIn,WindDirection,WindDirectionDegrees,WindSpeedMPH,WindSpeedGustMPH,Humidity,HourlyPrecipIn,Conditions,Clouds,dailyrainin,SoftwareType,DateUTC
2014-04-16 00:00:00,51.2,35.6,30.11,WNW,292,1.0,1.0,55,0.00,,,0.00,Wunderground v.1.13,2014-04-16 07:00:00,
2014-04-16 00:05:00,50.9,35.7,30.11,WNW,286,0.0,2.0,56,0.00,,,0.00,Wunderground v.1.13,2014-04-16 07:05:00,
2014-04-16 00:15:00,50.7,35.6,30.12,WNW,294,1.0,1.0,56,0.00,,,0.00,Wunderground v.1.13,2014-04-16 07:15:00,
2014-04-16 00:20:00,50.7,35.6,30.12,WNW,283,1.0,3.0,56,0.00,,,0.00,Wunderground v.1.13,2014-04-16 07:20:00,
2014-04-16 00:30:00,50.7,35.6,30.12,West,277,1.0,1.0,56,0.00,,,0.00,Wunderground v.1.13,2014-04-16 07:30:00,
2014-04-16 00:40:00,50.4,35.7,30.12,WNW,298,1.0,1.0,57,0.00,,,0.00,Wunderground v.1.13,2014-04-16 07:40:00,
2014-04-16 00:45:00,50.3,35.6,30.12,WNW,285,1.0,1.0,57,0.00,,,0.00,Wunderground v.1.13,2014-04-16 07:45:00,
2014-04-16 00:55:00,49.8,36.0,30.11,SW,234,0.0,1.0,59,0.00,,,0.00,Wunderground v.1.13,2014-04-16 07:55:00,
2014-04-16 01:05:00,48.6,35.7,30.11,WSW,237,0.0,0.0,61,0.00,,,0.00,Wunderground v.1.13,2014-04-16 08:05:00,
2014-04-16 01:15:00,47.3,35.3,30.11,WSW,237,0.0,1.0,63,0.00,,,0.00,Wunderground v.1.13,2014-04-16 08:15:00,
2014-04-16 01:20:00,46.7,35.2,30.12,WSW,237,0.0,0.0,64,0.00,,,0.00,Wunderground v.1.13,2014-04-16 08:20:00,
2014-04-16 01:25:00,46.1,35.4,30.11,WSW,237,0.0,0.0,66,0.00,,,0.00,Wunderground v.1.13,2014-04-16 08:25:00,
2014-04-16 01:35:00,45.9,35.9,30.11,WSW,240,0.0,0.0,68,0.00,,,0.00,Wunderground v.1.13,2014-04-16 08:35:00,
2014-04-16 01:45:00,47.1,36.7,30.12,WSW,240,0.0,0.0,67,0.00,,,0.00,Wunderground v.1.13,2014-04-16 08:45:00,
2014-04-16 01:50:00,46.8,36.0,30.12,West,265,0.0,0.0,66,0.00,,,0.00,Wunderground v.1.13,2014-04-16 08:50:00,
2014-04-16 02:00:00,45.4,35.8,30.12,West,266,0.0,0.0,69,0.00,,,0.00,Wunderground v.1.13,2014-04-16 09:00:00,
2014-04-16 02:05:00,44.7,35.5,30.12,South,169,0.0,0.0,70,0.00,,,0.00,Wunderground v.1.13,2014-04-16 09:05:00,
2014-04-16 02:15:00,44.0,35.6,30.12,South,170,0.0,0.0,72,0.00,,,0.00,Wunderground v.1.13,2014-04-16 09:15:00,
2014-04-16 02:20:00,43.7,35.3,30.13,South,169,0.0,0.0,72,0.00,,,0.00,Wunderground v.1.13,2014-04-16 09:20:00,
2014-04-16 02:30:00,43.1,35.0,30.13,South,170,0.0,0.0,73,0.00,,,0.00,Wunderground v.1.13,2014-04-16 09:30:00,
2014-04-16 02:40:00,42.5,35.1,30.13,South,169,0.0,0.0,75,0.00,,,0.00,Wunderground v.1.13,2014-04-16 09:40:00,
2014-04-16 02:45:00,42.3,34.9,30.13,South,169,0.0,0.0,75,0.00,,,0.00,Wunderground v.1.13,2014-04-16 09:45:00,
2014-04-16 02:55:00,41.8,34.8,30.13,South,170,0.0,0.0,76,0.00,,,0.00,Wunderground v.1.13,2014-04-16 09:55:00,
2014-04-16 03:00:00,41.6,34.9,30.13,South,169,0.0,0.0,77,0.00,,,0.00,Wunderground v.1.13,2014-04-16 10:00:00,
2014-04-16 03:05:00,41.6,35.2,30.13,South,169,0.0,0.0,78,0.00,,,0.00,Wunderground v.1.13,2014-04-16 10:05:00,
2014-04-16 03:15:00,41.7,35.3,30.13,SSE,150,0.0,0.0,78,0.00,,,0.00,Wunderground v.1.13,2014-04-16 10:15:00,
2014-04-16 03:25:00,41.7,35.7,30.12,SSE,156,0.0,0.0,79,0.00,,,0.00,Wunderground v.1.13,2014-04-16 10:25:00,
2014-04-16 03:30:00,41.5,35.2,30.13,SSE,156,0.0,0.0,78,0.00,,,0.00,Wunderground v.1.13,2014-04-16 10:30:00,
2014-04-16 03:40:00,41.3,35.3,30.12,SSE,164,0.0,0.0,79,0.00,,,0.00,Wunderground v.1.13,2014-04-16 10:40:00,
2014-04-16 03:50:00,41.3,35.3,30.12,SSE,164,0.0,0.0,79,0.00,,,0.00,Wunderground v.1.13,2014-04-16 10:50:00,
2014-04-16 03:55:00,41.3,35.3,30.13,SSE,164,0.0,0.0,79,0.00,,,0.00,Wunderground v.1.13,2014-04-16 10:55:00,
2014-04-16 04:05:00,41.1,35.1,30.12,SSE,164,0.0,0.0,79,0.00,,,0.00,Wunderground v.1.13,2014-04-16 11:05:00,
2014-04-16 04:15:00,40.8,34.8,30.13,SSE,164,0.0,0.0,79,0.00,,,0.00,Wunderground v.1.13,2014-04-16 11:15:00,
2014-04-16 04:25:00,40.2,34.5,30.13,SSE,164,0.0,0.0,80,0.00,,,0.00,Wunderground v.1.13,2014-04-16 11:25:00,
2014-04-16 04:35:00,39.9,34.2,30.13,SSE,164,0.0,0.0,80,0.00,,,0.00,Wunderground v.1.13,2014-04-16 11:35:00,
2014-04-16 04:45:00,39.8,34.4,30.13,SSE,164,0.0,0.0,81,0.00,,,0.00,Wunderground v.1.13,2014-04-16 11:45:00,
2014-04-16 04:50:00,39.7,34.3,30.13,SSE,164,0.0,0.0,81,0.00,,,0.00,Wunderground v.1.13,2014-04-16 11:50:00,
2014-04-16 04:55:00,39.6,34.2,30.13,SSE,164,0.0,0.0,81,0.00,,,0.00,Wunderground v.1.13,2014-04-16 11:55:00,
2014-04-16 05:05:00,39.0,33.7,30.13,SSE,164,0.0,0.0,81,0.00,,,0.00,Wunderground v.1.13,2014-04-16 12:05:00,
2014-04-16 05:15:00,38.9,33.9,30.13,SSE,164,0.0,0.0,82,0.00,,,0.00,Wunderground v.1.13,2014-04-16 12:15:00,
2014-04-16 05:20:00,38.8,33.8,30.13,SSE,164,0.0,0.0,82,0.00,,,0.00,Wunderground v.1.13,2014-04-16 12:20:00,
2014-04-16 05:30:00,38.9,34.2,30.12,SSE,164,0.0,0.0,83,0.00,,,0.00,Wunderground v.1.13,2014-04-16 12:30:00,
2014-04-16 05:35:00,38.9,34.2,30.12,SSE,164,0.0,0.0,83,0.00,,,0.00,Wunderground v.1.13,2014-04-16 12:35:00,
2014-04-16 05:45:00,38.8,34.1,30.12,SSE,164,0.0,0.0,83,0.00,,,0.00,Wunderground v.1.13,2014-04-16 12:45:00,
2014-04-16 05:55:00,38.5,33.8,30.12,SSE,164,0.0,0.0,83,0.00,,,0.00,Wunderground v.1.13,2014-04-16 12:55:00,
2014-04-16 06:00:00,38.4,33.7,30.12,SSE,164,0.0,0.0,83,0.00,,,0.00,Wunderground v.1.13,2014-04-16 13:00:00,
2014-04-16 06:05:00,38.4,33.7,30.12,SSE,164,0.0,0.0,83,0.00,,,0.00,Wunderground v.1.13,2014-04-16 13:05:00,
2014-04-16 06:15:00,38.4,33.7,30.12,SSE,164,0.0,0.0,83,0.00,,,0.00,Wunderground v.1.13,2014-04-16 13:15:00,
2014-04-16 06:20:00,38.5,33.8,30.12,SSE,164,0.0,0.0,83,0.00,,,0.00,Wunderground v.1.13,2014-04-16 13:20:00,
2014-04-16 06:30:00,38.6,34.2,30.13,SSE,164,0.0,0.0,84,0.00,,,0.00,Wunderground v.1.13,2014-04-16 13:30:00,
2014-04-16 06:40:00,38.7,34.3,30.13,SSE,164,0.0,0.0,84,0.00,,,0.00,Wunderground v.1.13,2014-04-16 13:40:00,
2014-04-16 06:50:00,38.7,34.3,30.13,SSE,164,0.0,0.0,84,0.00,,,0.00,Wunderground v.1.13,2014-04-16 13:50:00,
2014-04-16 06:55:00,38.7,34.3,30.13,SSE,164,0.0,0.0,84,0.00,,,0.00,Wunderground v.1.13,2014-04-16 13:55:00,
2014-04-16 07:05:00,38.9,34.5,30.14,SSE,164,0.0,0.0,84,0.00,,,0.00,Wunderground v.1.13,2014-04-16 14:05:00,
2014-04-16 07:15:00,39.3,34.9,30.14,SSE,164,0.0,0.0,84,0.00,,,0.00,Wunderground v.1.13,2014-04-16 14:15:00,
2014-04-16 07:25:00,39.6,35.2,30.14,SSE,164,0.0,0.0,84,0.00,,,0.00,Wunderground v.1.13,2014-04-16 14:25:00,
2014-04-16 07:35:00,40.2,35.8,30.14,SSE,164,0.0,0.0,84,0.00,,,0.00,Wunderground v.1.13,2014-04-16 14:35:00,
2014-04-16 07:40:00,40.6,36.1,30.14,SSE,164,0.0,0.0,84,0.00,,,0.00,Wunderground v.1.13,2014-04-16 14:40:00,
2014-04-16 07:50:00,41.8,36.7,30.14,SSE,164,0.0,0.0,82,0.00,,,0.00,Wunderground v.1.13,2014-04-16 14:50:00,